Time;durP1;ratioP1;P1;durP2;ratioP2;P2;SDS_P1;SDS_P2;PMS_P1;PMS_P2;Temp;Humidity;BMP_temperature;BMP_pressure;BME280_temperature;BME280_humidity;BME280_pressure;Samples;Min_cycle;Max_cycle;Signal;HPM_P1;HPM_P2
2023/04/04 00:00:33;;;;;;;3.10;1.77;;;;;;;0.82;71.01;101540.56;5102839;28;20048;-89
2023/04/04 00:03:00;;;;;;;5.15;1.50;;;;;;;1.14;70.38;101607.88;5081982;28;20074;-86
2023/04/04 00:05:27;;;;;;;4.35;1.60;;;;;;;0.96;69.81;101567.69;5075038;28;20033;-88
2023/04/04 00:07:54;;;;;;;5.10;2.00;;;;;;;1.17;69.39;101598.34;5082667;28;20048;-90
2023/04/04 00:10:21;;;;;;;5.07;1.77;;;;;;;0.80;70.33;101523.16;5078602;28;20058;-89
2023/04/04 00:12:49;;;;;;;5.82;1.98;;;;;;;1.14;69.77;101600.03;5064070;28;20105;-91
2023/04/04 00:15:16;;;;;;;3.63;1.80;;;;;;;1.11;69.62;101592.19;5068930;28;20422;-88
2023/04/04 00:17:43;;;;;;;4.60;1.58;;;;;;;0.98;70.24;101568.56;5074339;28;20032;-86
2023/04/04 00:20:10;;;;;;;4.00;1.70;;;;;;;0.99;70.85;101577.28;5077216;28;20048;-87
2023/04/04 00:22:37;;;;;;;3.08;1.73;;;;;;;0.34;70.46;101463.59;5075905;28;20044;-88
2023/04/04 00:25:05;;;;;;;4.25;1.85;;;;;;;0.88;70.64;101553.69;5099527;28;20115;-89
2023/04/04 00:27:31;;;;;;;4.28;1.73;;;;;;;0.66;71.17;101512.59;5060054;28;20055;-90
2023/04/04 00:29:58;;;;;;;3.67;1.70;;;;;;;0.79;71.11;101535.31;5049814;28;20064;-91
2023/04/04 00:32:25;;;;;;;3.70;1.88;;;;;;;0.96;69.98;101562.47;5079231;28;20051;-92
2023/04/04 00:34:56;;;;;;;6.82;1.90;;;;;;;0.66;70.09;101510.84;5090626;28;20032;-86
2023/04/04 00:37:23;;;;;;;5.85;2.22;;;;;;;1.08;69.95;101584.34;5079216;28;20079;-89
2023/04/04 00:39:52;;;;;;;3.30;1.85;;;;;;;1.02;69.93;101583.41;5071049;28;20076;-89
2023/04/04 00:42:19;;;;;;;6.75;2.05;;;;;;;1.07;69.53;101585.19;5061836;28;20151;-90
2023/04/04 00:44:45;;;;;;;3.17;2.05;;;;;;;1.08;69.91;101580.00;5083155;28;20055;-92
2023/04/04 00:47:13;;;;;;;3.17;1.80;;;;;;;0.98;69.49;101565.09;5059640;28;20118;-91
2023/04/04 00:49:45;;;;;;;4.60;2.10;;;;;;;0.91;69.80;101558.06;5066860;28;20040;-91
2023/04/04 00:52:14;;;;;;;5.95;2.10;;;;;;;0.97;69.62;101579.00;5061152;28;20505;-91
2023/04/04 00:54:41;;;;;;;3.40;2.08;;;;;;;0.92;69.50;101578.97;5057035;28;20037;-92
2023/04/04 00:57:07;;;;;;;3.60;1.85;;;;;;;0.79;70.36;101557.94;5072142;28;20054;-92
2023/04/04 00:59:35;;;;;;;4.80;2.08;;;;;;;0.89;69.98;101573.69;5062569;28;20064;-87
2023/04/04 01:02:01;;;;;;;5.28;2.00;;;;;;;0.90;70.63;101578.06;5063887;28;20051;-92
2023/04/04 01:04:30;;;;;;;5.43;2.40;;;;;;;0.70;69.52;101532.63;5060642;28;20044;-93
2023/04/04 01:06:58;;;;;;;5.57;2.13;;;;;;;0.87;71.13;101570.19;5063358;28;20177;-90
2023/04/04 01:09:25;;;;;;;8.02;2.38;;;;;;;0.85;71.53;101571.91;5072827;28;20447;-92
2023/04/04 01:11:54;;;;;;;5.30;2.25;;;;;;;0.82;71.19;101560.56;5063816;28;20428;-93
2023/04/04 01:14:24;;;;;;;6.43;2.15;;;;;;;0.75;71.69;101551.81;5077263;28;20041;-89
2023/04/04 01:16:52;;;;;;;5.50;2.20;;;;;;;0.31;72.38;101479.22;5053299;28;20097;-88
2023/04/04 01:19:45;;;;;;;5.82;2.55;;;;;;;0.82;73.07;101563.16;5063749;28;20416;-91
2023/04/04 01:22:13;;;;;;;4.72;2.20;;;;;;;0.78;73.82;101566.63;5076195;28;20041;-92
2023/04/04 01:24:43;;;;;;;3.70;2.00;;;;;;;0.54;74.31;101528.09;5054762;28;20092;-92
2023/04/04 01:27:12;;;;;;;4.15;2.30;;;;;;;0.65;75.16;101549.94;5076679;28;20123;-88
2023/04/04 01:29:39;;;;;;;4.95;2.70;;;;;;;0.64;74.93;101550.78;5068344;28;20051;-91
2023/04/04 01:32:18;;;;;;;6.57;2.85;;;;;;;0.66;75.27;101563.00;5070775;28;20055;-88
2023/04/04 01:35:05;;;;;;;6.20;2.40;;;;;;;0.71;76.06;101557.84;5099921;28;20047;-88
2023/04/04 01:37:41;;;;;;;6.63;2.80;;;;;;;0.62;75.25;101555.16;5076563;28;20040;-91
2023/04/04 01:40:16;;;;;;;4.80;2.63;;;;;;;0.60;76.40;101564.66;5060886;28;20036;-93
2023/04/04 01:42:44;;;;;;;5.95;2.83;;;;;;;0.59;77.25;101562.91;5066511;28;20047;-90
2023/04/04 01:45:11;;;;;;;8.02;3.28;;;;;;;0.58;75.45;101564.66;5069019;28;20057;-84
2023/04/04 01:47:42;;;;;;;5.18;3.17;;;;;;;0.51;77.56;101555.00;5087102;28;20052;-86
2023/04/04 01:50:10;;;;;;;6.55;3.10;;;;;;;0.44;78.64;101557.50;5082270;28;20036;-84
2023/04/04 01:52:37;;;;;;;8.48;3.47;;;;;;;0.42;79.22;101557.50;5087137;28;20028;-86
2023/04/04 01:55:04;;;;;;;5.38;2.97;;;;;;;0.45;79.73;101556.66;5085238;28;20095;-87
2023/04/04 01:57:32;;;;;;;6.55;3.00;;;;;;;0.45;80.07;101556.66;5082965;28;20036;-89
2023/04/04 02:00:00;;;;;;;8.60;3.00;;;;;;;0.39;80.76;101559.19;5048865;28;20067;-92
2023/04/04 02:02:27;;;;;;;8.70;3.10;;;;;;;0.32;82.07;101556.47;5062253;28;20059;-88
2023/04/04 02:04:54;;;;;;;6.78;3.55;;;;;;;0.28;82.30;101554.72;5067619;28;20031;-85
2023/04/04 02:07:20;;;;;;;5.15;3.05;;;;;;;0.20;82.98;101551.13;5057459;28;20041;-90
2023/04/04 02:09:47;;;;;;;7.30;3.47;;;;;;;0.18;83.38;101567.56;5060778;28;20118;-93
2023/04/04 02:12:13;;;;;;;6.00;3.13;;;;;;;0.12;83.96;101552.75;5059827;28;20044;-93
2023/04/04 02:14:44;;;;;;;6.28;3.33;;;;;;;-0.25;84.40;101501.88;5038582;28;20082;-92
2023/04/04 02:17:11;;;;;;;6.85;3.60;;;;;;;0.02;84.91;101550.84;5050787;28;20045;-95
2023/04/04 02:19:38;;;;;;;9.23;3.42;;;;;;;0.06;84.83;101547.44;5066635;28;20070;-87
2023/04/04 02:22:04;;;;;;;5.32;3.00;;;;;;;-0.01;85.05;101538.69;5082312;28;20079;-85
2023/04/04 02:24:31;;;;;;;6.45;3.50;;;;;;;0.05;84.49;101547.41;5085088;28;20127;-93
2023/04/04 02:26:58;;;;;;;5.32;3.67;;;;;;;-0.27;85.31;101490.56;5070660;28;20054;-86
2023/04/04 02:29:24;;;;;;;7.88;3.55;;;;;;;0.05;85.64;101540.47;5070129;28;20063;-88
2023/04/04 02:31:51;;;;;;;5.78;3.70;;;;;;;-0.19;85.48;101494.16;5083256;28;20056;-92
2023/04/04 02:34:18;;;;;;;6.28;3.50;;;;;;;-0.16;83.99;101488.13;5063480;28;20043;-90
2023/04/04 02:36:44;;;;;;;5.90;3.30;;;;;;;0.20;83.93;101555.44;5051206;28;20056;-91
2023/04/04 02:39:11;;;;;;;7.00;3.58;;;;;;;0.10;83.93;101564.00;5074793;28;20047;-90
2023/04/04 02:41:37;;;;;;;5.85;3.45;;;;;;;-0.20;84.79;101512.34;5063827;28;20055;-92
2023/04/04 02:44:04;;;;;;;4.88;3.80;;;;;;;-0.17;84.04;101518.50;5077104;28;20056;-86
2023/04/04 02:46:31;;;;;;;7.18;3.78;;;;;;;-0.37;84.83;101473.94;5100330;28;20036;-88
2023/04/04 02:48:58;;;;;;;4.55;3.50;;;;;;;-0.31;85.37;101488.75;5080495;28;20067;-91
2023/04/04 02:51:26;;;;;;;7.82;3.88;;;;;;;-0.13;84.64;101514.19;5071516;28;20060;-92
2023/04/04 02:53:52;;;;;;;5.70;3.33;;;;;;;-0.43;84.72;101473.84;5056805;28;20535;-90
2023/04/04 02:56:22;;;;;;;7.57;3.92;;;;;;;-0.20;85.71;101515.84;5057421;28;20050;-91
2023/04/04 02:58:49;;;;;;;7.65;3.95;;;;;;;-0.10;85.61;101532.47;5084948;28;20045;-92
2023/04/04 03:01:15;;;;;;;5.13;3.58;;;;;;;-0.06;84.98;101529.94;5065469;28;20048;-90
2023/04/04 03:03:45;;;;;;;7.47;4.07;;;;;;;-0.14;84.81;101515.03;5067522;28;20620;-91
2023/04/04 03:06:13;;;;;;;6.97;3.92;;;;;;;-0.08;84.91;101522.94;5060209;28;20131;-90
2023/04/04 03:08:41;;;;;;;6.03;3.70;;;;;;;-0.25;83.77;101490.59;5074976;28;20048;-91
2023/04/04 03:11:20;;;;;;;5.30;4.20;;;;;;;-0.09;83.57;101518.59;5091413;28;20040;-88
2023/04/04 03:13:50;;;;;;;4.57;4.07;;;;;;;-0.07;84.37;101527.31;5081142;28;20040;-91
2023/04/04 03:16:19;;;;;;;9.05;4.13;;;;;;;-0.07;83.45;101524.69;5105655;28;20083;-94
2023/04/04 03:18:45;;;;;;;7.85;4.07;;;;;;;-0.19;83.37;101503.69;5059571;28;20118;-92
2023/04/04 03:21:12;;;;;;;7.47;4.13;;;;;;;-0.29;83.57;101483.56;5064665;28;20065;-91
2023/04/04 03:23:40;;;;;;;5.53;3.72;;;;;;;-0.26;83.08;101494.91;5076580;28;20131;-92
2023/04/04 03:26:06;;;;;;;6.07;4.40;;;;;;;-0.48;82.80;101440.81;5065673;28;20416;-89
2023/04/04 03:28:33;;;;;;;5.15;3.95;;;;;;;-0.67;83.15;101421.47;5070476;28;20048;-92
2023/04/04 03:31:06;;;;;;;5.15;3.83;;;;;;;-0.20;83.15;101508.03;5056249;28;20481;-92
2023/04/04 03:33:37;;;;;;;8.20;3.83;;;;;;;-0.21;83.88;101518.41;5043838;28;20048;-92
2023/04/04 03:36:12;;;;;;;7.57;3.95;;;;;;;-0.41;84.12;101477.34;5052526;28;20040;-94
2023/04/04 03:38:40;;;;;;;6.90;4.05;;;;;;;-0.58;84.29;101447.59;5045040;28;20106;-89
2023/04/04 03:41:15;;;;;;;5.93;4.00;;;;;;;-0.18;84.89;101513.25;5065637;28;20040;-93
2023/04/04 03:43:42;;;;;;;5.30;4.00;;;;;;;-0.51;84.43;101439.03;5068379;28;20048;-93
2023/04/04 03:46:08;;;;;;;6.05;4.03;;;;;;;-0.16;84.13;101507.19;5069112;28;20040;-92
2023/04/04 03:48:36;;;;;;;8.95;4.30;;;;;;;-0.18;84.15;101508.94;5054092;28;20258;-92
2023/04/04 03:51:11;;;;;;;6.25;3.90;;;;;;;-0.17;85.02;101509.81;5067535;28;20041;-92
2023/04/04 03:53:40;;;;;;;6.32;4.22;;;;;;;-0.22;85.03;101504.53;5062789;28;20075;-91
2023/04/04 03:56:10;;;;;;;4.75;3.80;;;;;;;-0.26;85.19;101504.44;5063437;28;20070;-93
2023/04/04 03:58:36;;;;;;;6.30;3.83;;;;;;;-0.31;84.54;101488.75;5062903;28;20052;-91
2023/04/04 04:01:03;;;;;;;8.50;4.40;;;;;;;-0.25;85.92;101498.41;5062362;28;20045;-95
2023/04/04 04:03:30;;;;;;;5.03;4.00;;;;;;;-0.21;85.93;101501.06;5054103;28;20046;-94
2023/04/04 04:05:59;;;;;;;5.32;4.05;;;;;;;-0.23;85.81;101501.91;5063844;28;20053;-90
2023/04/04 04:08:27;;;;;;;6.38;4.47;;;;;;;-0.45;86.32;101479.88;5056017;28;20048;-90
2023/04/04 04:10:53;;;;;;;6.25;4.10;;;;;;;-0.57;86.46;101477.09;5077830;28;20040;-94
2023/04/04 04:13:21;;;;;;;6.65;3.97;;;;;;;-0.60;87.02;101467.50;5074927;28;20037;-87
2023/04/04 04:15:50;;;;;;;5.28;3.90;;;;;;;-0.58;88.14;101463.22;5075500;28;20054;-87
2023/04/04 04:18:16;;;;;;;7.13;4.10;;;;;;;-0.75;87.33;101441.25;5071469;28;20033;-88
2023/04/04 04:20:43;;;;;;;8.52;4.00;;;;;;;-0.77;86.85;101436.03;5081969;28;20048;-88
2023/04/04 04:23:10;;;;;;;5.63;3.70;;;;;;;-0.39;87.03;101500.78;5068010;28;20041;-88
2023/04/04 04:25:37;;;;;;;5.07;3.88;;;;;;;-0.39;87.28;101506.00;5077248;28;20041;-94
2023/04/04 04:28:05;;;;;;;8.25;4.25;;;;;;;-0.73;87.27;101447.38;5068141;28;20041;-93
2023/04/04 04:30:32;;;;;;;5.57;4.15;;;;;;;-1.08;87.93;101382.66;5059837;28;20485;-92
2023/04/04 04:32:59;;;;;;;5.75;3.90;;;;;;;-0.77;88.23;101437.75;5056707;28;20484;-93
2023/04/04 04:35:27;;;;;;;5.97;4.30;;;;;;;-0.59;88.77;101471.88;5061774;28;20063;-94
2023/04/04 04:37:56;;;;;;;5.90;4.13;;;;;;;-0.78;88.46;101438.59;5072981;28;20058;-94
2023/04/04 04:40:22;;;;;;;5.63;4.20;;;;;;;-0.43;88.99;101505.06;5059175;28;20048;-92
2023/04/04 04:42:50;;;;;;;7.00;4.43;;;;;;;-0.49;89.28;101504.13;5061192;28;20675;-91
2023/04/04 04:45:18;;;;;;;7.78;4.07;;;;;;;-0.69;90.13;101462.19;5080736;28;20059;-93
2023/04/04 04:47:47;;;;;;;7.07;4.10;;;;;;;-0.84;89.68;101441.13;5060520;28;20588;-91
2023/04/04 04:50:13;;;;;;;7.78;4.10;;;;;;;-0.84;89.64;101441.13;5082983;28;20094;-91
2023/04/04 04:52:40;;;;;;;5.47;4.05;;;;;;;-0.48;89.86;101504.16;5066525;28;20037;-91
2023/04/04 04:55:08;;;;;;;5.72;3.65;;;;;;;-0.44;90.20;101505.91;5073614;28;20043;-93
2023/04/04 04:57:37;;;;;;;6.30;4.15;;;;;;;-0.83;89.05;101438.56;5072175;28;20039;-91
2023/04/04 05:00:05;;;;;;;7.18;4.10;;;;;;;-0.50;89.94;101503.25;5072348;28;20040;-94
2023/04/04 05:02:32;;;;;;;7.95;3.90;;;;;;;-0.67;90.71;101480.41;5060305;28;20059;-94
2023/04/04 05:04:58;;;;;;;5.57;3.90;;;;;;;-0.58;91.51;101502.22;5054920;28;20045;-92
2023/04/04 05:07:26;;;;;;;5.60;3.85;;;;;;;-0.51;91.82;101509.28;5079481;28;20043;-93
2023/04/04 05:09:53;;;;;;;8.02;3.90;;;;;;;-0.58;92.26;101481.41;5086175;28;20066;-94
2023/04/04 05:12:19;;;;;;;7.40;3.90;;;;;;;-0.43;91.20;101501.59;5037052;28;20044;-93
2023/04/04 05:14:46;;;;;;;7.82;4.55;;;;;;;-0.66;90.73;101467.44;5052460;28;20032;-94
2023/04/04 05:17:12;;;;;;;7.72;3.83;;;;;;;-0.61;90.21;101483.97;5069504;28;20040;-93
2023/04/04 05:19:40;;;;;;;5.47;4.03;;;;;;;-0.44;90.77;101503.31;5071349;28;20040;-91
2023/04/04 05:22:11;;;;;;;7.20;4.15;;;;;;;-0.37;90.50;101509.50;5071984;28;20124;-93
2023/04/04 05:24:38;;;;;;;6.82;4.20;;;;;;;-0.36;89.55;101503.44;5090097;28;20036;-92
2023/04/04 05:27:09;;;;;;;5.50;3.80;;;;;;;-0.40;90.54;101501.66;5056960;28;20044;-94
2023/04/04 05:29:36;;;;;;;5.22;4.10;;;;;;;-0.37;90.66;101499.97;5047793;28;20054;-93
2023/04/04 05:32:05;;;;;;;4.40;3.92;;;;;;;-0.31;90.26;101513.91;5067206;28;20044;-92
2023/04/04 05:34:32;;;;;;;6.55;3.88;;;;;;;-0.61;90.85;101454.47;5088726;28;20047;-91
2023/04/04 05:37:02;;;;;;;5.82;4.43;;;;;;;-0.74;89.83;101430.00;5053997;28;20049;-91
2023/04/04 05:39:29;;;;;;;6.70;4.38;;;;;;;-0.55;89.52;101447.66;5068450;28;20060;-93
2023/04/04 05:42:01;;;;;;;8.27;4.20;;;;;;;-0.32;88.46;101486.16;5073489;28;20036;-93
2023/04/04 05:44:27;;;;;;;11.02;4.53;;;;;;;-0.09;87.96;101510.78;5060621;28;20147;-93
2023/04/04 05:46:55;;;;;;;5.30;4.28;;;;;;;-0.45;87.75;101444.31;5081101;28;20046;-91
2023/04/04 05:49:24;;;;;;;6.93;4.60;;;;;;;-0.05;88.68;101509.97;5063212;28;20067;-91
2023/04/04 05:51:51;;;;;;;8.48;4.43;;;;;;;-0.03;87.62;101505.66;5063978;28;20029;-91
2023/04/04 05:54:18;;;;;;;8.60;4.57;;;;;;;-0.03;87.76;101509.16;5073258;28;20043;-90
2023/04/04 05:56:47;;;;;;;8.82;4.55;;;;;;;0.06;87.16;101524.00;5082089;28;20112;-90
2023/04/04 05:59:17;;;;;;;5.72;4.38;;;;;;;0.07;86.04;101515.34;5057210;28;20066;-90
2023/04/04 06:01:46;;;;;;;6.85;4.50;;;;;;;-0.08;86.02;101483.88;5083924;28;20037;-90
2023/04/04 06:04:12;;;;;;;9.13;4.70;;;;;;;0.10;85.02;101504.97;5069503;28;20025;-90
2023/04/04 06:06:39;;;;;;;7.35;4.30;;;;;;;0.17;84.94;101500.69;5082530;28;20037;-89
2023/04/04 06:09:08;;;;;;;7.03;4.45;;;;;;;0.16;84.29;101492.00;5079400;28;20036;-90
2023/04/04 06:11:37;;;;;;;9.38;4.57;;;;;;;0.02;84.15;101462.31;5076428;28;20041;-90
2023/04/04 06:14:07;;;;;;;;;;;;;;;0.50;83.15;101526.31;5257037;22;20056;-87
2023/04/04 06:16:35;;;;;;;7.57;4.78;;;;;;;0.26;82.15;101461.75;5064868;28;19928;-90
2023/04/04 06:19:02;;;;;;;5.57;4.05;;;;;;;0.66;80.68;101508.25;5080103;28;20067;-89
2023/04/04 06:21:29;;;;;;;5.10;4.13;;;;;;;0.56;78.75;101489.91;5054723;28;20026;-90
2023/04/04 06:23:56;;;;;;;7.70;4.70;;;;;;;0.86;90.37;101518.91;5076920;28;20040;-89
2023/04/04 06:26:25;;;;;;;7.38;4.47;;;;;;;0.63;83.43;101457.84;5074799;28;20033;-90
2023/04/04 06:28:53;;;;;;;8.85;4.30;;;;;;;1.09;77.85;101532.19;5082572;28;20091;-89
2023/04/04 06:31:22;;;;;;;6.68;4.32;;;;;;;0.86;77.01;101479.78;5060136;28;20048;-91
2023/04/04 06:33:51;;;;;;;8.02;4.72;;;;;;;1.06;75.55;101506.06;5066781;28;20040;-92
2023/04/04 06:36:18;;;;;;;8.63;4.20;;;;;;;1.24;75.45;101518.41;5055552;28;20080;-92
2023/04/04 06:38:55;;;;;;;4.15;3.75;;;;;;;1.46;71.58;101532.50;5057624;28;20033;-90
2023/04/04 06:41:22;;;;;;;6.03;3.90;;;;;;;1.36;70.13;101508.06;5081033;28;20036;-90
2023/04/04 06:43:49;;;;;;;5.63;3.97;;;;;;;1.62;69.11;101527.41;5066612;28;20072;-89
2023/04/04 06:46:34;;;;;;;4.65;3.97;;;;;;;1.90;67.67;101543.28;5059713;28;20045;-92
2023/04/04 06:49:03;;;;;;;6.80;3.70;;;;;;;2.13;65.61;101544.31;5064157;28;20101;-92
2023/04/04 06:51:33;;;;;;;7.18;3.60;;;;;;;2.27;64.68;101524.34;5063755;28;20032;-92
2023/04/04 06:54:06;;;;;;;6.95;3.80;;;;;;;2.56;61.97;101539.28;5054538;28;20063;-89
2023/04/04 06:56:32;;;;;;;6.90;4.00;;;;;;;2.72;61.43;101525.38;5091729;28;20041;-90
2023/04/04 06:59:03;;;;;;;6.03;3.35;;;;;;;3.05;60.05;101535.94;5040529;28;20030;-89
2023/04/04 07:01:37;;;;;;;5.15;3.58;;;;;;;3.46;58.36;101532.50;5048431;28;20021;-91
2023/04/04 07:04:19;;;;;;;6.28;3.15;;;;;;;3.46;56.90;101512.41;5047525;28;20049;-91
2023/04/04 07:06:45;;;;;;;7.07;3.35;;;;;;;3.76;57.09;101532.50;5042246;28;20053;-92
2023/04/04 07:09:12;;;;;;;4.78;2.63;;;;;;;3.95;55.07;101521.94;5022426;28;20038;-91
2023/04/04 07:11:57;;;;;;;5.47;2.83;;;;;;;4.03;52.17;101530.69;5027746;28;20132;-94
2023/04/04 07:14:37;;;;;;;3.92;2.55;;;;;;;4.21;55.20;101549.00;5013106;28;20046;-91
2023/04/04 07:17:09;;;;;;;3.38;2.80;;;;;;;4.12;52.95;101518.41;5032410;28;20399;-94
2023/04/04 07:19:49;;;;;;;3.45;2.42;;;;;;;4.35;51.15;101554.19;5010571;28;20331;-95
2023/04/04 07:22:19;;;;;;;5.70;2.63;;;;;;;4.01;52.03;101527.19;5044476;28;20045;-94
2023/04/04 07:24:49;;;;;;;3.63;2.70;;;;;;;3.86;54.01;101512.38;5038572;28;20144;-92
2023/04/04 07:27:16;;;;;;;3.63;2.38;;;;;;;3.61;52.50;101458.28;5036107;28;20047;-93
2023/04/04 07:29:43;;;;;;;5.13;2.38;;;;;;;4.11;51.83;101518.41;5038342;28;20049;-93
2023/04/04 07:32:15;;;;;;;4.72;2.85;;;;;;;4.52;51.05;101544.53;5038204;28;20101;-92
2023/04/04 07:34:46;;;;;;;8.10;2.75;;;;;;;4.55;51.05;101510.44;5014310;28;20041;-94
2023/04/04 07:37:17;;;;;;;4.07;2.67;;;;;;;4.67;50.05;101506.84;5033663;28;20042;-93
2023/04/04 07:39:46;;;;;;;3.38;2.45;;;;;;;4.59;49.47;101509.50;5031355;28;20091;-92
2023/04/04 07:42:22;;;;;;;5.03;2.30;;;;;;;4.82;51.07;101547.00;5037271;28;20065;-92
2023/04/04 07:44:51;;;;;;;4.55;2.30;;;;;;;4.67;49.23;101481.50;5027980;28;20052;-92
2023/04/04 07:47:22;;;;;;;6.40;2.30;;;;;;;5.05;48.62;101512.75;5043562;28;20051;-94
2023/04/04 07:49:49;;;;;;;4.63;2.45;;;;;;;5.36;49.10;101512.50;5044212;28;20033;-94
2023/04/04 07:52:18;;;;;;;3.72;2.08;;;;;;;5.45;46.80;101499.31;5047460;28;20044;-93
2023/04/04 07:54:51;;;;;;;3.47;2.13;;;;;;;5.25;46.89;101486.34;5029432;28;20045;-93
2023/04/04 07:57:20;;;;;;;3.40;2.35;;;;;;;5.54;47.55;101533.38;5010173;28;20045;-94
2023/04/04 07:59:47;;;;;;;4.75;2.30;;;;;;;5.05;48.32;101454.97;5031244;28;20099;-94
2023/04/04 08:02:16;;;;;;;5.30;2.65;;;;;;;5.33;48.42;101502.06;5022629;28;20076;-92
2023/04/04 08:04:45;;;;;;;4.25;2.30;;;;;;;5.58;48.55;101495.69;5028945;28;20053;-93
2023/04/04 08:07:18;;;;;;;4.05;2.60;;;;;;;5.95;47.04;101535.69;5034354;28;20042;-94
2023/04/04 08:09:45;;;;;;;4.07;2.60;;;;;;;5.41;48.81;101421.44;5031000;28;20042;-93
2023/04/04 08:12:13;;;;;;;3.53;2.35;;;;;;;5.79;47.79;101461.34;5022984;28;20536;-88
2023/04/04 08:14:42;;;;;;;4.30;2.50;;;;;;;6.46;46.07;101528.97;5040527;28;20049;-93
2023/04/04 08:17:11;;;;;;;3.63;2.20;;;;;;;6.54;45.67;101492.91;5022512;28;20103;-92
2023/04/04 08:19:38;;;;;;;3.35;2.50;;;;;;;6.73;45.41;101511.13;5034194;28;20124;-94
2023/04/04 08:22:08;;;;;;;3.80;2.28;;;;;;;6.95;44.00;101533.59;5031837;28;20038;-93
2023/04/04 08:24:35;;;;;;;6.20;2.17;;;;;;;6.72;47.10;101469.88;5230348;23;20049;-92
2023/04/04 08:27:04;;;;;;;6.18;2.30;;;;;;;6.66;45.52;101431.34;5022242;28;20049;-94
2023/04/04 08:29:33;;;;;;;4.50;2.40;;;;;;;7.09;44.11;101529.00;5036888;28;20097;-92
2023/04/04 08:32:03;;;;;;;4.05;2.20;;;;;;;6.91;43.31;101521.41;5035298;28;20109;-91
2023/04/04 08:34:29;;;;;;;4.07;1.98;;;;;;;6.68;42.42;101503.28;5347334;22;20068;-90
2023/04/04 08:36:58;;;;;;;4.85;1.80;;;;;;;6.61;43.04;101496.38;5037258;28;20037;-91
2023/04/04 08:39:29;;;;;;;3.17;1.92;;;;;;;6.74;42.94;101482.13;5031114;28;20096;-93
2023/04/04 08:42:02;;;;;;;3.40;2.00;;;;;;;6.92;41.91;101475.75;5041977;28;20060;-91
2023/04/04 08:44:33;;;;;;;4.00;2.20;;;;;;;6.90;42.00;101451.19;5050691;28;20055;-92
2023/04/04 08:47:07;;;;;;;3.05;2.03;;;;;;;7.21;42.49;101514.81;5046058;28;20132;-92
2023/04/04 08:49:42;;;;;;;2.92;1.98;;;;;;;6.69;42.20;101469.03;5043020;28;20117;-92
2023/04/04 08:52:13;;;;;;;3.78;2.13;;;;;;;6.79;42.61;101518.91;5037788;28;20497;-92
2023/04/04 08:54:42;;;;;;;4.05;2.17;;;;;;;6.42;42.43;101522.03;5047434;28;20053;-89
2023/04/04 08:57:12;;;;;;;5.10;2.38;;;;;;;6.11;42.59;101515.38;5048312;28;20033;-90
2023/04/04 08:59:42;;;;;;;;;;;;;;;6.01;43.59;101518.97;5061609;28;20037;-91
2023/04/04 09:02:25;;;;;;;4.25;2.40;;;;;;;5.99;42.73;101516.34;5047778;28;20281;-90
2023/04/04 09:04:56;;;;;;;3.50;2.30;;;;;;;5.67;41.93;101466.69;5039761;28;20045;-91
2023/04/04 09:07:35;;;;;;;4.32;2.10;;;;;;;5.51;42.33;101459.88;5040828;28;20037;-89
2023/04/04 09:10:09;;;;;;;4.03;1.90;;;;;;;5.81;41.80;101501.63;5055800;28;20067;-92
2023/04/04 09:12:46;;;;;;;3.03;1.77;;;;;;;5.54;42.52;101455.44;5028702;28;20037;-91
2023/04/04 09:15:15;;;;;;;3.20;1.95;;;;;;;5.85;42.50;101492.81;5042013;28;20105;-91
2023/04/04 09:17:43;;;;;;;4.80;2.70;;;;;;;6.06;42.51;101506.66;5046980;28;20041;-88
2023/04/04 09:20:39;;;;;;;4.07;2.08;;;;;;;5.94;40.98;101502.41;5056924;28;20040;-90
2023/04/04 09:23:08;;;;;;;5.65;2.45;;;;;;;5.77;42.02;101497.28;5046901;28;20067;-94
2023/04/04 09:25:36;;;;;;;3.50;1.98;;;;;;;5.84;42.34;101504.19;5058500;28;20057;-91
2023/04/04 09:28:04;;;;;;;4.75;2.42;;;;;;;5.88;41.76;101503.31;5044576;28;20041;-90
2023/04/04 09:30:37;;;;;;;5.80;2.25;;;;;;;5.85;40.61;101487.53;5063599;28;20044;-93
2023/04/04 09:33:05;;;;;;;4.82;2.10;;;;;;;6.04;41.28;101485.63;5053547;28;20091;-92
2023/04/04 09:35:38;;;;;;;3.50;1.88;;;;;;;6.13;41.61;101482.91;5035632;28;20057;-93
2023/04/04 09:38:05;;;;;;;4.65;1.85;;;;;;;6.10;39.52;101471.56;5031576;28;20117;-92
2023/04/04 09:40:35;;;;;;;4.35;1.88;;;;;;;6.06;40.46;101467.22;5026834;28;20060;-92
2023/04/04 09:43:07;;;;;;;8.20;2.10;;;;;;;6.32;39.46;101489.69;5041071;28;20057;-91
2023/04/04 09:45:41;;;;;;;3.83;2.00;;;;;;;6.41;39.42;101488.72;5024961;28;20067;-93
2023/04/04 09:48:08;;;;;;;4.22;1.98;;;;;;;6.54;39.03;101479.78;5039140;28;20045;-92
2023/04/04 09:50:45;;;;;;;3.28;2.15;;;;;;;6.65;37.61;101487.50;5043548;28;20045;-90
2023/04/04 09:53:17;;;;;;;3.88;2.20;;;;;;;6.68;38.32;101498.00;5053699;28;20034;-89
2023/04/04 09:55:52;;;;;;;4.07;2.10;;;;;;;6.72;37.92;101488.31;5044239;28;20054;-91
2023/04/04 09:58:28;;;;;;;4.28;2.20;;;;;;;6.77;38.44;101481.22;5047793;28;20041;-92
2023/04/04 10:01:01;;;;;;;4.72;2.15;;;;;;;6.80;38.31;101454.84;5042509;28;20039;-90
2023/04/04 10:03:39;;;;;;;5.03;2.10;;;;;;;6.72;40.29;101448.81;5045224;28;20049;-89
2023/04/04 10:06:11;;;;;;;3.75;2.20;;;;;;;6.30;39.90;101414.28;5050710;28;20068;-92
2023/04/04 10:08:43;;;;;;;4.15;2.33;;;;;;;6.50;40.40;101488.59;5044198;28;20067;-90
2023/04/04 10:11:10;;;;;;;2.60;2.00;;;;;;;6.34;41.51;101477.38;5045103;28;20099;-92
2023/04/04 10:13:45;;;;;;;3.90;2.40;;;;;;;6.39;41.35;101484.34;5054156;28;20047;-91
2023/04/04 10:16:15;;;;;;;4.53;1.88;;;;;;;6.45;41.50;101482.53;5048665;28;20105;-91
2023/04/04 10:18:42;;;;;;;5.13;2.20;;;;;;;6.61;42.25;101477.94;5038636;28;20041;-91
2023/04/04 10:21:11;;;;;;;5.55;2.20;;;;;;;6.63;40.78;101457.69;5052122;28;20076;-90
2023/04/04 10:23:44;;;;;;;5.10;2.15;;;;;;;6.68;39.92;101459.41;5049166;28;20103;-89
2023/04/04 10:26:12;;;;;;;3.78;2.15;;;;;;;6.53;40.72;101420.13;5052473;28;20104;-88
2023/04/04 10:28:41;;;;;;;4.75;2.00;;;;;;;6.29;40.68;101370.50;5069003;28;20714;-92
2023/04/04 10:31:27;;;;;;;2.80;1.67;;;;;;;7.04;39.90;101470.28;5035867;28;20137;-91
2023/04/04 10:34:12;;;;;;;3.25;2.20;;;;;;;6.99;39.43;101478.25;5068326;28;20041;-93
2023/04/04 10:36:46;;;;;;;2.60;1.52;;;;;;;7.04;40.28;101459.75;5048546;28;20048;-90
2023/04/04 10:39:33;;;;;;;3.65;2.20;;;;;;;7.06;39.17;101488.69;5039295;28;20684;-89
2023/04/04 10:42:04;;;;;;;2.78;1.80;;;;;;;6.62;39.61;101453.31;5041632;28;20052;-93
2023/04/04 10:44:36;;;;;;;2.72;1.55;;;;;;;6.90;39.45;101488.94;5048013;28;20127;-91
2023/04/04 10:47:24;;;;;;;3.30;1.88;;;;;;;7.04;39.48;101480.81;5040923;28;20048;-93
2023/04/04 10:49:51;;;;;;;4.60;2.00;;;;;;;6.95;38.87;101478.31;5046076;28;20075;-93
2023/04/04 10:52:21;;;;;;;3.47;2.08;;;;;;;6.91;40.03;101477.50;5042534;28;20048;-94
2023/04/04 10:55:01;;;;;;;3.70;1.95;;;;;;;6.98;39.54;101455.44;5055194;28;20041;-93
2023/04/04 10:57:29;;;;;;;4.05;2.03;;;;;;;7.19;39.29;101477.94;5040289;28;20060;-92
2023/04/04 11:00:00;;;;;;;2.65;1.77;;;;;;;7.29;39.50;101469.00;5056253;28;20371;-87
2023/04/04 11:02:50;;;;;;;5.13;1.70;;;;;;;7.32;38.15;101433.81;5057189;28;20032;-89
2023/04/04 11:05:21;;;;;;;3.67;1.60;;;;;;;7.27;38.11;101423.34;5042679;28;20036;-91
2023/04/04 11:08:01;;;;;;;3.83;1.80;;;;;;;7.49;37.96;101430.91;5028508;28;20046;-93
2023/04/04 11:10:41;;;;;;;3.13;1.63;;;;;;;7.53;37.89;101438.72;5040339;28;20090;-93
2023/04/04 11:13:11;;;;;;;3.92;2.00;;;;;;;7.48;37.93;101424.75;5043640;28;20113;-92
2023/04/04 11:16:00;;;;;;;4.40;1.77;;;;;;;7.40;37.48;101421.38;5037537;28;20152;-93
2023/04/04 11:18:40;;;;;;;2.72;1.83;;;;;;;7.53;37.91;101443.13;5058635;28;20049;-94
2023/04/04 11:21:22;;;;;;;4.10;1.77;;;;;;;7.22;38.25;101377.78;5038148;28;20052;-94
2023/04/04 11:24:00;;;;;;;4.80;2.20;;;;;;;7.70;37.64;101438.44;5035547;28;20041;-91
2023/04/04 11:26:27;;;;;;;3.28;1.80;;;;;;;7.75;37.29;101436.53;5030892;28;20038;-93
2023/04/04 11:29:04;;;;;;;2.78;1.55;;;;;;;7.68;38.40;101427.03;5042442;28;20154;-93
2023/04/04 11:31:41;;;;;;;4.57;1.88;;;;;;;7.88;38.41;101430.13;5041927;28;20049;-93
2023/04/04 11:34:37;;;;;;;4.05;2.28;;;;;;;7.83;38.37;101410.06;5063002;28;20377;-92
2023/04/04 11:37:25;;;;;;;3.97;1.90;;;;;;;7.93;38.29;101409.81;5048678;28;20029;-91
2023/04/04 11:39:57;;;;;;;3.45;2.08;;;;;;;8.13;38.51;101413.84;5032517;28;20039;-91
2023/04/04 11:42:37;;;;;;;4.90;2.00;;;;;;;8.16;38.52;101413.78;5074283;28;20044;-88
2023/04/04 11:45:11;;;;;;;4.40;2.03;;;;;;;8.30;37.29;101419.63;5054481;28;20059;-89